Time;durP1;ratioP1;P1;durP2;ratioP2;P2;SDS_P1;SDS_P2;PMS_P1;PMS_P2;Temp;Humidity;BMP_temperature;BMP_pressure;BME280_temperature;BME280_humidity;BME280_pressure;Samples;Min_cycle;Max_cycle;Signal;HPM_P1;HPM_P2
2023/09/11 00:01:31;;;;;;;0.90;0.90;;;;;;;;;;5096233;28;20466;-78
2023/09/11 00:03:58;;;;;;;0.82;0.80;;;;;;;;;;5096275;28;20024;-78
2023/09/11 00:06:25;;;;;;;0.52;0.52;;;;;;;;;;5114028;28;20020;-79
2023/09/11 00:08:51;;;;;;;0.60;0.60;;;;;;;;;;5114594;28;20019;-78
2023/09/11 00:11:17;;;;;;;0.70;0.70;;;;;;;;;;5095571;28;20044;-79
2023/09/11 00:13:43;;;;;;;0.60;0.60;;;;;;;;;;5114003;28;20471;-80
2023/09/11 00:16:09;;;;;;;0.63;0.63;;;;;;;;;;5096130;28;20028;-80
2023/09/11 00:18:37;;;;;;;1.45;0.82;;;;;;;;;;5113592;28;20522;-80
2023/09/11 00:21:03;;;;;;;0.70;0.70;;;;;;;;;;5096574;28;20028;-80
2023/09/11 00:23:30;;;;;;;1.13;0.90;;;;;;;;;;5095926;28;20024;-79
2023/09/11 00:25:56;;;;;;;0.77;0.77;;;;;;;;;;5113668;28;20027;-79
2023/09/11 00:28:22;;;;;;;0.50;0.50;;;;;;;;;;5095938;28;20027;-80
2023/09/11 00:30:48;;;;;;;0.75;0.75;;;;;;;;;;5095566;28;20027;-80
2023/09/11 00:33:16;;;;;;;0.98;0.70;;;;;;;;;;5113969;28;20382;-80
2023/09/11 00:35:45;;;;;;;1.08;0.98;;;;;;;;;;5095886;28;20027;-80
2023/09/11 00:38:11;;;;;;;0.60;0.60;;;;;;;;;;5095875;28;20430;-80
2023/09/11 00:40:37;;;;;;;0.70;0.70;;;;;;;;;;5114123;28;20031;-79
2023/09/11 00:43:03;;;;;;;0.82;0.82;;;;;;;;;;5095937;28;20471;-79
2023/09/11 00:45:30;;;;;;;0.68;0.68;;;;;;;;;;5113489;28;20073;-80
2023/09/11 00:47:56;;;;;;;0.63;0.63;;;;;;;;;;5097591;28;20485;-80
2023/09/11 00:50:23;;;;;;;0.63;0.63;;;;;;;;;;5118004;28;20058;-79
2023/09/11 00:52:49;;;;;;;0.80;0.80;;;;;;;;;;5099418;28;20019;-79
2023/09/11 00:55:15;;;;;;;0.50;0.50;;;;;;;;;;5100581;28;20019;-78
2023/09/11 00:57:43;;;;;;;0.60;0.60;;;;;;;;;;5099748;28;20467;-81
2023/09/11 01:00:09;;;;;;;0.85;0.70;;;;;;;;;;5117936;28;20030;-80
2023/09/11 01:02:35;;;;;;;0.68;0.68;;;;;;;;;;5099681;28;20065;-80
2023/09/11 01:05:07;;;;;;;0.70;0.70;;;;;;;;;;5117540;28;20024;-80
2023/09/11 01:07:33;;;;;;;0.60;0.60;;;;;;;;;;5099191;28;20023;-78
2023/09/11 01:09:59;;;;;;;0.50;0.50;;;;;;;;;;5099515;28;20390;-80
2023/09/11 01:12:25;;;;;;;0.50;0.50;;;;;;;;;;5099361;28;20028;-80
2023/09/11 01:14:52;;;;;;;0.60;0.60;;;;;;;;;;5099100;28;20022;-80
2023/09/11 01:17:18;;;;;;;0.77;0.77;;;;;;;;;;5117882;28;20030;-79
2023/09/11 01:19:47;;;;;;;0.60;0.60;;;;;;;;;;5099310;28;20068;-80
2023/09/11 01:22:39;;;;;;;0.60;0.60;;;;;;;;;;5099258;28;20076;-78
2023/09/11 01:25:17;;;;;;;0.50;0.50;;;;;;;;;;5094408;28;20080;-81
2023/09/11 01:28:02;;;;;;;0.70;0.70;;;;;;;;;;5098956;28;20118;-79
2023/09/11 01:30:29;;;;;;;0.80;0.80;;;;;;;;;;5117070;28;20466;-80
2023/09/11 01:32:55;;;;;;;0.80;0.80;;;;;;;;;;5099038;28;20072;-78
2023/09/11 01:35:21;;;;;;;0.60;0.60;;;;;;;;;;5098887;28;20027;-78
2023/09/11 01:37:47;;;;;;;0.60;0.60;;;;;;;;;;5098965;28;20024;-80
2023/09/11 01:40:13;;;;;;;0.60;0.60;;;;;;;;;;5117661;28;20498;-79
2023/09/11 01:42:49;;;;;;;0.60;0.60;;;;;;;;;;5098491;28;20138;-80
2023/09/11 01:45:16;;;;;;;1.45;1.13;;;;;;;;;;5098978;28;20027;-81
2023/09/11 01:47:47;;;;;;;0.70;0.70;;;;;;;;;;5098878;28;20016;-81
2023/09/11 01:50:17;;;;;;;0.68;0.68;;;;;;;;;;5098625;28;20028;-80
2023/09/11 01:52:48;;;;;;;0.60;0.60;;;;;;;;;;5098706;28;20034;-80
2023/09/11 01:55:15;;;;;;;0.60;0.60;;;;;;;;;;5098332;28;20023;-81
2023/09/11 01:57:41;;;;;;;0.88;0.85;;;;;;;;;;5098620;28;20030;-80
2023/09/11 02:00:08;;;;;;;0.90;0.85;;;;;;;;;;5097974;28;20053;-79
2023/09/11 02:02:34;;;;;;;0.60;0.60;;;;;;;;;;5098223;28;20039;-79
2023/09/11 02:05:03;;;;;;;1.05;0.98;;;;;;;;;;5098524;28;20540;-79
2023/09/11 02:07:30;;;;;;;0.60;0.60;;;;;;;;;;5098581;28;20089;-80
2023/09/11 02:09:56;;;;;;;0.85;0.80;;;;;;;;;;5097676;28;20044;-80
2023/09/11 02:12:25;;;;;;;0.90;0.90;;;;;;;;;;5116547;28;20107;-81
2023/09/11 02:14:51;;;;;;;0.68;0.68;;;;;;;;;;5098637;28;20115;-80
2023/09/11 02:17:17;;;;;;;0.70;0.70;;;;;;;;;;5098088;28;20023;-80
2023/09/11 02:19:43;;;;;;;0.60;0.60;;;;;;;;;;5098604;28;20028;-80
2023/09/11 02:22:09;;;;;;;0.70;0.70;;;;;;;;;;5098520;28;20038;-80
2023/09/11 02:24:35;;;;;;;0.60;0.60;;;;;;;;;;5126893;28;20070;-77
2023/09/11 02:27:01;;;;;;;0.60;0.60;;;;;;;;;;5117537;28;20020;-80
2023/09/11 02:29:27;;;;;;;0.93;0.88;;;;;;;;;;5117620;28;20020;-79
2023/09/11 02:31:53;;;;;;;0.77;0.70;;;;;;;;;;5116734;28;20028;-80
2023/09/11 02:34:20;;;;;;;0.80;0.80;;;;;;;;;;5115814;28;20482;-79
2023/09/11 02:36:46;;;;;;;0.60;0.60;;;;;;;;;;5097534;28;20047;-79
2023/09/11 02:39:12;;;;;;;0.70;0.70;;;;;;;;;;5097760;28;20020;-80
2023/09/11 02:41:38;;;;;;;0.70;0.70;;;;;;;;;;5098308;28;20023;-79
2023/09/11 02:44:04;;;;;;;0.60;0.60;;;;;;;;;;5097705;28;20023;-81
2023/09/11 02:46:30;;;;;;;0.68;0.68;;;;;;;;;;5115589;28;20020;-81
2023/09/11 02:48:56;;;;;;;0.70;0.70;;;;;;;;;;5097759;28;20028;-80
2023/09/11 02:51:22;;;;;;;0.75;0.70;;;;;;;;;;5115775;28;20020;-80
2023/09/11 02:53:48;;;;;;;0.82;0.77;;;;;;;;;;5097475;28;20028;-80
2023/09/11 02:56:14;;;;;;;1.00;0.85;;;;;;;;;;5097403;28;20023;-81
2023/09/11 02:58:41;;;;;;;1.08;0.80;;;;;;;;;;5097055;28;20026;-79
2023/09/11 03:01:07;;;;;;;0.63;0.63;;;;;;;;;;5097327;28;20028;-81
2023/09/11 03:03:33;;;;;;;0.70;0.70;;;;;;;;;;5097293;28;20024;-78
2023/09/11 03:06:00;;;;;;;0.82;0.77;;;;;;;;;;5097385;28;20047;-79
2023/09/11 03:08:26;;;;;;;0.73;0.70;;;;;;;;;;5097082;28;20020;-79
2023/09/11 03:10:52;;;;;;;0.60;0.60;;;;;;;;;;5095914;28;20048;-80
2023/09/11 03:13:18;;;;;;;0.93;0.70;;;;;;;;;;5096654;28;20016;-79
2023/09/11 03:15:44;;;;;;;0.70;0.70;;;;;;;;;;5097032;28;20118;-80
2023/09/11 03:18:11;;;;;;;1.17;0.93;;;;;;;;;;5114928;28;20182;-81
2023/09/11 03:20:38;;;;;;;0.80;0.70;;;;;;;;;;5096651;28;20062;-78
2023/09/11 03:23:04;;;;;;;0.95;0.70;;;;;;;;;;5097207;28;20080;-81
2023/09/11 03:25:37;;;;;;;0.60;0.60;;;;;;;;;;5114976;28;20024;-80
2023/09/11 03:28:03;;;;;;;0.68;0.68;;;;;;;;;;5096508;28;20023;-80
2023/09/11 03:30:30;;;;;;;0.80;0.80;;;;;;;;;;5096839;28;20390;-77
2023/09/11 03:32:56;;;;;;;1.55;0.85;;;;;;;;;;5096406;28;20044;-78
2023/09/11 03:35:22;;;;;;;0.95;0.70;;;;;;;;;;5114864;28;20016;-79
2023/09/11 03:37:48;;;;;;;1.15;0.80;;;;;;;;;;5114587;28;20016;-80
2023/09/11 03:40:15;;;;;;;0.70;0.70;;;;;;;;;;5096279;28;20063;-79
2023/09/11 03:42:41;;;;;;;0.60;0.60;;;;;;;;;;5114452;28;20027;-78
2023/09/11 03:45:07;;;;;;;0.60;0.60;;;;;;;;;;5096916;28;20352;-77
2023/09/11 03:47:34;;;;;;;0.70;0.70;;;;;;;;;;5096134;28;20023;-79
2023/09/11 03:50:02;;;;;;;0.95;0.80;;;;;;;;;;5096322;28;20026;-78
2023/09/11 03:52:28;;;;;;;0.60;0.60;;;;;;;;;;5096426;28;20168;-80
2023/09/11 03:54:54;;;;;;;0.70;0.70;;;;;;;;;;5096082;28;20027;-81
2023/09/11 03:57:20;;;;;;;0.60;0.60;;;;;;;;;;5096399;28;20042;-81
2023/09/11 03:59:46;;;;;;;0.80;0.70;;;;;;;;;;5096312;28;20020;-80
2023/09/11 04:02:12;;;;;;;0.50;0.50;;;;;;;;;;5095873;28;20024;-81
2023/09/11 04:04:38;;;;;;;0.75;0.70;;;;;;;;;;5096296;28;20344;-80
2023/09/11 04:07:04;;;;;;;0.75;0.70;;;;;;;;;;5096200;28;20115;-81
2023/09/11 04:09:32;;;;;;;0.70;0.70;;;;;;;;;;5095512;28;20043;-80
2023/09/11 04:11:58;;;;;;;0.60;0.60;;;;;;;;;;5114084;28;20430;-80
2023/09/11 04:14:24;;;;;;;0.52;0.52;;;;;;;;;;5096022;28;20023;-81
2023/09/11 04:16:50;;;;;;;0.60;0.60;;;;;;;;;;5114037;28;20051;-80
2023/09/11 04:19:16;;;;;;;0.70;0.70;;;;;;;;;;5095975;28;20032;-81
2023/09/11 04:21:42;;;;;;;0.88;0.85;;;;;;;;;;5096007;28;20386;-81
2023/09/11 04:24:12;;;;;;;0.70;0.70;;;;;;;;;;5095509;28;20051;-80
2023/09/11 04:26:43;;;;;;;0.70;0.70;;;;;;;;;;5114257;28;20016;-79
2023/09/11 04:29:11;;;;;;;1.10;0.75;;;;;;;;;;5095670;28;20023;-81
2023/09/11 04:31:38;;;;;;;0.68;0.68;;;;;;;;;;5114047;28;20035;-79
2023/09/11 04:34:04;;;;;;;0.60;0.60;;;;;;;;;;5095657;28;20106;-80
2023/09/11 04:36:30;;;;;;;0.70;0.70;;;;;;;;;;5113497;28;20161;-81
2023/09/11 04:38:57;;;;;;;0.70;0.70;;;;;;;;;;5095893;28;20111;-81
2023/09/11 04:41:24;;;;;;;0.55;0.55;;;;;;;;;;5096682;28;20035;-80
2023/09/11 04:43:50;;;;;;;0.85;0.70;;;;;;;;;;5095456;28;20027;-80
2023/09/11 04:46:16;;;;;;;0.50;0.50;;;;;;;;;;5096031;28;20023;-82
2023/09/11 04:48:42;;;;;;;0.75;0.73;;;;;;;;;;5095839;28;20027;-81
2023/09/11 04:51:08;;;;;;;0.70;0.70;;;;;;;;;;5095229;28;20032;-81
2023/09/11 04:53:34;;;;;;;0.75;0.75;;;;;;;;;;5095717;28;20016;-82
2023/09/11 04:56:00;;;;;;;1.65;0.80;;;;;;;;;;5095681;28;20024;-79
2023/09/11 04:58:26;;;;;;;0.75;0.75;;;;;;;;;;5095428;28;20107;-81
2023/09/11 05:00:53;;;;;;;0.60;0.60;;;;;;;;;;5095783;28;20238;-80
2023/09/11 05:03:19;;;;;;;0.63;0.63;;;;;;;;;;5096090;28;20352;-81
2023/09/11 05:05:45;;;;;;;0.60;0.60;;;;;;;;;;5095224;28;20039;-81
2023/09/11 05:08:12;;;;;;;0.70;0.70;;;;;;;;;;5095710;28;20023;-79
2023/09/11 05:10:41;;;;;;;0.73;0.70;;;;;;;;;;5095057;28;20048;-82
2023/09/11 05:13:08;;;;;;;0.70;0.70;;;;;;;;;;5095203;28;20047;-79
2023/09/11 05:15:34;;;;;;;1.13;0.80;;;;;;;;;;5095890;28;20034;-80
2023/09/11 05:18:00;;;;;;;0.70;0.70;;;;;;;;;;5095064;28;20024;-81
2023/09/11 05:20:26;;;;;;;1.27;1.17;;;;;;;;;;5095595;28;20016;-82
2023/09/11 05:22:52;;;;;;;0.68;0.68;;;;;;;;;;5113450;28;20072;-81
2023/09/11 05:25:18;;;;;;;0.60;0.60;;;;;;;;;;5095187;28;20161;-82
2023/09/11 05:27:45;;;;;;;0.75;0.70;;;;;;;;;;5095526;28;20026;-82
2023/09/11 05:30:11;;;;;;;0.60;0.60;;;;;;;;;;5095325;28;20064;-80
2023/09/11 05:32:37;;;;;;;0.80;0.80;;;;;;;;;;5095094;28;20463;-81
2023/09/11 05:35:04;;;;;;;0.75;0.70;;;;;;;;;;5097313;28;20024;-82
2023/09/11 05:37:31;;;;;;;2.42;0.88;;;;;;;;;;5112371;28;20035;-78
2023/09/11 05:39:57;;;;;;;0.93;0.77;;;;;;;;;;5113932;28;20043;-80
2023/09/11 05:42:23;;;;;;;0.80;0.80;;;;;;;;;;5099370;28;20023;-81
2023/09/11 05:44:49;;;;;;;0.90;0.80;;;;;;;;;;5099417;28;20051;-83
2023/09/11 05:47:15;;;;;;;1.17;1.08;;;;;;;;;;5098458;28;20061;-80
2023/09/11 05:49:42;;;;;;;2.38;0.70;;;;;;;;;;5117335;28;20030;-81
2023/09/11 05:52:08;;;;;;;0.90;0.73;;;;;;;;;;5098579;28;20118;-81
2023/09/11 05:54:34;;;;;;;2.15;0.88;;;;;;;;;;5098235;28;20024;-83
2023/09/11 05:57:02;;;;;;;0.75;0.75;;;;;;;;;;5098522;28;20065;-80
2023/09/11 05:59:28;;;;;;;1.02;0.90;;;;;;;;;;5116920;28;20019;-82
2023/09/11 06:01:54;;;;;;;0.80;0.80;;;;;;;;;;5099604;28;20591;-81
2023/09/11 06:04:21;;;;;;;0.93;0.88;;;;;;;;;;5098104;28;20047;-80
2023/09/11 06:06:47;;;;;;;0.90;0.90;;;;;;;;;;5098485;28;20020;-80
2023/09/11 06:09:13;;;;;;;1.55;0.93;;;;;;;;;;5098939;28;20111;-82
2023/09/11 06:11:39;;;;;;;1.05;0.75;;;;;;;;;;5098287;28;20084;-82
2023/09/11 06:14:07;;;;;;;0.70;0.70;;;;;;;;;;5097940;28;20047;-82
2023/09/11 06:16:33;;;;;;;1.80;0.75;;;;;;;;;;5098301;28;20024;-82
2023/09/11 06:19:00;;;;;;;1.00;0.77;;;;;;;;;;5098133;28;20027;-81
2023/09/11 06:21:26;;;;;;;0.73;0.73;;;;;;;;;;5098182;28;20466;-79
2023/09/11 06:23:52;;;;;;;0.70;0.70;;;;;;;;;;5116490;28;20034;-79
2023/09/11 06:26:19;;;;;;;0.70;0.70;;;;;;;;;;5116522;28;20024;-80
2023/09/11 06:28:45;;;;;;;0.80;0.80;;;;;;;;;;5079936;28;20035;-81
2023/09/11 06:31:11;;;;;;;0.60;0.60;;;;;;;;;;5095624;28;20029;-81
2023/09/11 06:33:37;;;;;;;0.70;0.70;;;;;;;;;;5077533;28;20024;-82
2023/09/11 06:36:03;;;;;;;0.70;0.70;;;;;;;;;;5095411;28;20024;-81
2023/09/11 06:38:29;;;;;;;1.02;0.80;;;;;;;;;;5073349;28;20463;-79
2023/09/11 06:40:56;;;;;;;0.70;0.70;;;;;;;;;;5095440;28;20031;-78
2023/09/11 06:43:22;;;;;;;1.48;0.82;;;;;;;;;;5076963;28;20482;-83
2023/09/11 06:45:54;;;;;;;0.80;0.80;;;;;;;;;;5095694;28;20020;-85
2023/09/11 06:48:22;;;;;;;0.88;0.70;;;;;;;;;;5095634;28;20043;-85
2023/09/11 06:50:48;;;;;;;1.75;0.80;;;436.10;2355.20;;;;;;5077461;28;20035;-83
2023/09/11 06:53:13;;;;;;;0.65;0.65;;;435.90;2355.20;;;;;;5077728;28;20032;-84
2023/09/11 06:55:47;;;;;;;0.70;0.70;;;435.90;2355.20;;;;;;5089962;28;20028;-82
2023/09/11 06:58:13;;;;;;;0.75;0.60;;;436.10;2355.20;;;;;;5079161;28;20032;-84
2023/09/11 07:00:39;;;;;;;0.60;0.60;;;460.80;2380.80;;;;;;5077684;28;20063;-82
2023/09/11 07:03:05;;;;;;;1.10;1.00;;;461.00;2380.80;;;;;;5095416;28;20036;-84
2023/09/11 07:05:31;;;;;;;0.82;0.80;;;461.10;2380.80;;;;;;5076727;28;20097;-82
2023/09/11 07:07:57;;;;;;;0.60;0.60;;;;;;;;;;5076984;28;20052;-81
2023/09/11 07:10:25;;;;;;;0.77;0.77;;;;;;;;;;5085422;28;20051;-82
2023/09/11 07:12:52;;;;;;;0.60;0.60;;;;;;;;;;5093733;28;20123;-82
2023/09/11 07:15:18;;;;;;;0.73;0.70;;;;;;;;;;5094969;28;20574;-82
2023/09/11 07:17:45;;;;;;;0.60;0.60;;;;;;;;;;5094947;28;20149;-83
2023/09/11 07:20:15;;;;;;;0.70;0.70;;;;;;;;;;5093710;28;20043;-82
2023/09/11 07:22:41;;;;;;;0.77;0.77;;;;;;;;;;5093809;28;20027;-81
2023/09/11 07:25:16;;;;;;;1.00;0.90;;;;;;;;;;5093191;28;20016;-80
2023/09/11 07:27:43;;;;;;;0.82;0.63;;;;;;;;;;5093934;28;20023;-85
2023/09/11 07:30:09;;;;;;;0.73;0.70;;;;;;;;;;5094116;28;20325;-84
2023/09/11 07:32:35;;;;;;;0.60;0.60;;;;;;;;;;5093531;28;20036;-84
2023/09/11 07:35:01;;;;;;;0.63;0.63;;;512.00;2380.80;;;;;;5093976;28;20027;-85
2023/09/11 07:37:27;;;;;;;0.60;0.60;;;512.00;2380.80;;;;;;5094391;28;20032;-83
2023/09/11 07:39:53;;;;;;;0.80;0.70;;;;;;;;;;5093768;28;20028;-83
2023/09/11 07:42:19;;;;;;;1.17;0.80;;;;;;;;;;5097888;28;20030;-83
2023/09/11 07:44:45;;;;;;;0.73;0.73;;;;;;;;;;5098346;28;20588;-84
2023/09/11 07:47:14;;;;;;;0.50;0.50;;;;;;;;;;5093078;28;20028;-83
2023/09/11 07:49:40;;;;;;;0.60;0.60;;;;;;;;;;5093465;28;20058;-84
2023/09/11 07:52:06;;;;;;;1.02;0.93;;;;;;;;;;5093166;28;20035;-79
2023/09/11 07:54:32;;;;;;;0.95;0.85;;;;;;;;;;5093197;28;20063;-77
2023/09/11 07:57:01;;;;;;;0.50;0.50;;;;;;;;;;5092782;28;20027;-76
2023/09/11 07:59:27;;;;;;;0.50;0.50;;;;;;;;;;5092415;28;20378;-79
2023/09/11 08:01:53;;;;;;;0.50;0.50;;;;;;;;;;5093025;28;20489;-79
2023/09/11 08:04:19;;;;;;;0.90;0.68;;;;;;;;;;5092695;28;20118;-78
2023/09/11 08:06:45;;;;;;;0.60;0.60;;;;;;;;;;5093191;28;20076;-79
2023/09/11 08:09:11;;;;;;;0.50;0.50;;;;;;;;;;5092283;28;20039;-77
2023/09/11 08:11:39;;;;;;;0.52;0.52;;;;;;;;;;5075884;28;20123;-77
2023/09/11 08:14:06;;;;;;;0.60;0.60;;;;;;;;;;5093822;28;20430;-79
2023/09/11 08:16:32;;;;;;;0.60;0.60;;;;;;;;;;5075782;28;20119;-78
2023/09/11 08:18:58;;;;;;;0.68;0.68;;;;;;;;;;5093940;28;20020;-78
2023/09/11 08:21:24;;;;;;;0.40;0.40;;;;;;;;;;5075372;28;20463;-77
2023/09/11 08:23:50;;;;;;;0.70;0.70;;;;;;;;;;5075354;28;20024;-78
2023/09/11 08:26:17;;;;;;;0.82;0.80;;;;;;;;;;5093471;28;20074;-77
2023/09/11 08:28:43;;;;;;;0.60;0.60;;;;;;;;;;5075367;28;20505;-79
2023/09/11 08:31:09;;;;;;;0.85;0.52;;;;;;;;;;5075425;28;20032;-77
2023/09/11 08:33:35;;;;;;;0.70;0.70;;;;;;;;;;5075432;28;20097;-77
2023/09/11 08:36:01;;;;;;;1.88;0.70;;;;;;;;;;5075265;28;20020;-76
2023/09/11 08:38:27;;;;;;;0.70;0.70;;;;;;;;;;5059209;28;20563;-79
2023/09/11 08:40:53;;;;;;;0.60;0.60;;;;;;;;;;5075322;28;20024;-78
2023/09/11 08:43:24;;;;;;;0.52;0.52;;;;;;;;;;5075569;28;20020;-78
2023/09/11 08:45:51;;;;;;;0.45;0.45;;;;;;;;;;5093665;28;20024;-79
2023/09/11 08:48:18;;;;;;;0.40;0.40;;;;;;;;;;5075239;28;20020;-80
2023/09/11 08:50:52;;;;;;;0.50;0.50;;;589.70;2329.60;;;;;;5075599;28;20024;-79
2023/09/11 08:53:20;;;;;;;0.50;0.50;;;614.50;2304.00;;;;;;5076272;28;20024;-78
2023/09/11 08:55:47;;;;;;;0.40;0.40;;;;;;;;;;5070519;28;20406;-84
2023/09/11 08:58:15;;;;;;;0.35;0.35;;;;;;;;;;5085749;28;20024;-78
2023/09/11 09:00:41;;;;;;;0.40;0.40;;;614.80;2252.80;;;;;;5104918;28;20027;-80
2023/09/11 09:03:08;;;;;;;0.40;0.40;;;;;;;;;;5096035;28;20027;-80
2023/09/11 09:05:34;;;;;;;0.90;0.70;;;;;;;;;;5114598;28;20024;-79
2023/09/11 09:08:02;;;;;;;0.65;0.45;;;;;;;;;;5095509;28;20088;-79
2023/09/11 09:10:28;;;;;;;0.45;0.45;;;;;;;;;;5097674;28;20052;-80
2023/09/11 09:12:55;;;;;;;0.60;0.43;;;;;;;;;;5099469;28;20034;-78
2023/09/11 09:15:21;;;;;;;0.50;0.50;;;;;;;;;;5099800;28;20356;-80
2023/09/11 09:17:49;;;;;;;0.40;0.40;;;;;;;;;;5099039;28;20030;-80
2023/09/11 09:20:17;;;;;;;1.00;0.60;;;;;;;;;;5099361;28;20028;-79
2023/09/11 09:22:56;;;;;;;0.40;0.40;;;;;;;;;;5117177;28;20081;-81
2023/09/11 09:25:23;;;;;;;1.75;0.65;;;;;;;;;;5099051;28;20105;-80
2023/09/11 09:27:49;;;;;;;0.80;0.60;;;;;;;;;;5117254;28;20099;-78
2023/09/11 09:30:22;;;;;;;0.40;0.40;;;;;;;;;;5098448;28;20049;-80
2023/09/11 09:32:49;;;;;;;0.60;0.50;;;;;;;;;;5098705;28;20051;-78
2023/09/11 09:35:36;;;;;;;0.35;0.35;;;;;;;;;;5099323;28;20118;-79
2023/09/11 09:38:02;;;;;;;0.63;0.63;;;;;;;;;;5098800;28;20027;-79
2023/09/11 09:40:31;;;;;;;0.30;0.30;;;;;;;;;;5099077;28;20412;-80
2023/09/11 09:43:01;;;;;;;0.40;0.40;;;;;;;;;;5116838;28;20524;-77
2023/09/11 09:45:28;;;;;;;0.45;0.45;;;;;;;;;;5098612;28;20130;-79
2023/09/11 09:48:05;;;;;;;2.70;0.68;;;;;;;;;;5098740;28;20111;-82
2023/09/11 09:50:46;;;;;;;0.40;0.40;;;;;;;;;;5098704;28;20019;-81
2023/09/11 09:53:25;;;;;;;0.40;0.35;;;;;;;;;;5098888;28;20034;-80
2023/09/11 09:55:52;;;;;;;0.60;0.50;;;;;;;;;;5098610;28;20458;-79
2023/09/11 09:58:24;;;;;;;0.43;0.43;;;;;;;;;;5115430;28;20019;-79
2023/09/11 10:00:50;;;;;;;0.75;0.55;;;;;;;;;;5116808;28;20070;-79
2023/09/11 10:03:16;;;;;;;0.28;0.28;;;;;;;;;;5096506;28;20023;-77
2023/09/11 10:05:43;;;;;;;2.03;0.70;;;;;;;;;;5095871;28;20412;-79
2023/09/11 10:08:09;;;;;;;0.43;0.40;;;;;;;;;;5114922;28;20084;-80
2023/09/11 10:10:35;;;;;;;0.50;0.50;;;;;;;;;;5096646;28;20517;-79
2023/09/11 10:13:05;;;;;;;0.32;0.32;;;;;;;;;;5097022;28;20047;-81
2023/09/11 10:15:32;;;;;;;0.40;0.40;;;;;;;;;;5098235;28;20463;-78
2023/09/11 10:17:58;;;;;;;0.85;0.57;;;;;;;;;;5097236;28;20405;-80
2023/09/11 10:20:25;;;;;;;0.65;0.38;;;;;;;;;;5096800;28;20023;-78
2023/09/11 10:22:55;;;;;;;0.55;0.55;;;;;;;;;;5097597;28;20470;-79
2023/09/11 10:25:22;;;;;;;1.05;0.52;;;;;;;;;;5097745;28;20019;-79
2023/09/11 10:27:54;;;;;;;0.52;0.50;;;;;;;;;;5098261;28;20030;-77
2023/09/11 10:30:22;;;;;;;1.95;0.80;;;;;;;;;;5098009;28;20024;-78
2023/09/11 10:32:55;;;;;;;0.85;0.52;;;;;;;;;;5116260;28;20030;-78
2023/09/11 10:35:21;;;;;;;0.63;0.50;;;;;;;;;;5099706;28;20023;-78
2023/09/11 10:37:48;;;;;;;0.38;0.38;;;717.40;1843.20;;;;;;5097479;28;20028;-78
2023/09/11 10:40:15;;;;;;;0.47;0.40;;;;;;;;;;5097651;28;20118;-78
2023/09/11 10:42:41;;;;;;;0.30;0.30;;;;;;;;;;5116240;28;20034;-78
2023/09/11 10:45:28;;;;;;;0.22;0.22;;;742.60;1843.20;;;;;;5097497;28;20031;-79
2023/09/11 10:47:54;;;;;;;0.80;0.55;;;742.60;1817.60;;;;;;5097203;28;20356;-78
2023/09/11 10:50:23;;;;;;;0.30;0.30;;;;;;;;;;5097158;28;20118;-78
2023/09/11 10:52:54;;;;;;;0.63;0.38;;;;;;;;;;5097222;28;20016;-79
2023/09/11 10:55:22;;;;;;;0.20;0.20;;;;;;;;;;5097213;28;20042;-78
2023/09/11 10:57:48;;;;;;;0.55;0.30;;;;;;;;;;5097220;28;20019;-77
2023/09/11 11:00:14;;;;;;;0.30;0.30;;;;;;;;;;5097512;28;20082;-78
2023/09/11 11:02:40;;;;;;;0.32;0.32;;;;;;;;;;5097128;28;20046;-79
2023/09/11 11:05:13;;;;;;;0.60;0.50;;;;;;;;;;5097145;28;20015;-78
2023/09/11 11:07:40;;;;;;;0.40;0.30;;;;;;;;;;5097119;28;20030;-78
2023/09/11 11:10:06;;;;;;;0.30;0.30;;;;;;;;;;5114926;28;20055;-78
2023/09/11 11:12:33;;;;;;;0.30;0.30;;;;;;;;;;5097385;28;20042;-80
2023/09/11 11:15:18;;;;;;;0.30;0.30;;;;;;;;;;5096849;28;20036;-79
2023/09/11 11:17:44;;;;;;;0.30;0.30;;;;;;;;;;5096916;28;20019;-79
2023/09/11 11:20:11;;;;;;;0.20;0.20;;;;;;;;;;5096879;28;20015;-79
2023/09/11 11:22:40;;;;;;;0.20;0.20;;;;;;;;;;5096336;28;20023;-77
2023/09/11 11:25:10;;;;;;;0.30;0.30;;;;;;;;;;5096727;28;20417;-77
2023/09/11 11:27:37;;;;;;;0.45;0.40;;;;;;;;;;5096692;28;20394;-78
2023/09/11 11:30:04;;;;;;;0.65;0.50;;;;;;;;;;5096333;28;20028;-79
2023/09/11 11:32:30;;;;;;;0.30;0.30;;;;;;;;;;5096289;28;20055;-78
2023/09/11 11:35:01;;;;;;;0.50;0.40;;;;;;;;;;5115200;28;20019;-77
2023/09/11 11:37:27;;;;;;;0.40;0.40;;;;;;;;;;5096394;28;20489;-78
2023/09/11 11:39:53;;;;;;;0.25;0.25;;;;;;;;;;5096397;28;20127;-79
2023/09/11 11:42:20;;;;;;;0.45;0.30;;;;;;;;;;5114690;28;20031;-78
2023/09/11 11:44:47;;;;;;;1.40;0.82;;;;;;;;;;5114379;28;20019;-77
2023/09/11 11:47:13;;;;;;;0.45;0.40;;;;;;;;;;5096313;28;20015;-78
2023/09/11 11:49:39;;;;;;;0.38;0.38;;;;;;;;;;5096112;28;20509;-79
2023/09/11 11:52:06;;;;;;;0.43;0.32;;;;;;;;;;5096058;28;20031;-79
2023/09/11 11:54:34;;;;;;;0.25;0.25;;;;;;;;;;5096485;28;20023;-77
2023/09/11 11:57:01;;;;;;;0.20;0.20;;;;;;;;;;5096008;28;20023;-78
2023/09/11 11:59:35;;;;;;;1.30;0.47;;;;;;;;;;5096270;28;20046;-78
2023/09/11 12:02:01;;;;;;;0.30;0.30;;;;;;;;;;5114443;28;20422;-78
2023/09/11 12:04:27;;;;;;;0.82;0.43;;;;;;;;;;5095807;28;20024;-79
2023/09/11 12:06:54;;;;;;;1.55;0.43;;;;;;;;;;5096220;28;20042;-80
2023/09/11 12:09:21;;;;;;;1.52;0.50;;;;;;;;;;5096183;28;20441;-80
2023/09/11 12:11:49;;;;;;;0.35;0.30;;;;;;;;;;5114194;28;20023;-77
2023/09/11 12:14:16;;;;;;;0.73;0.43;;;;;;;;;;5114037;28;20046;-79
2023/09/11 12:16:42;;;;;;;0.30;0.30;;;;;;;;;;5096293;28;20348;-79
2023/09/11 12:19:08;;;;;;;0.55;0.50;;;;;;;;;;5095577;28;20068;-81
2023/09/11 12:21:35;;;;;;;1.10;0.52;;;;;;;;;;5095920;28;20419;-80
2023/09/11 12:24:01;;;;;;;0.43;0.30;;;;;;;;;;5096126;28;20026;-80
2023/09/11 12:26:27;;;;;;;0.30;0.20;;;;;;;;;;5095753;28;20371;-79
2023/09/11 12:28:54;;;;;;;0.20;0.20;;;;;;;;;;5105187;28;20016;-79
2023/09/11 12:31:20;;;;;;;0.38;0.30;;;;;;;;;;5139162;28;20034;-79
2023/09/11 12:33:53;;;;;;;0.70;0.35;;;;;;;;;;5098829;28;20069;-79
2023/09/11 12:36:22;;;;;;;0.63;0.40;;;;;;;;;;5115067;28;20031;-77
2023/09/11 12:38:49;;;;;;;0.20;0.20;;;;;;;;;;5095911;28;20064;-78
2023/09/11 12:41:16;;;;;;;0.85;0.40;;;;;;;;;;5095726;28;20100;-78
2023/09/11 12:43:42;;;;;;;0.55;0.30;;;;;;;;;;5097128;28;20020;-80
2023/09/11 12:46:08;;;;;;;0.95;0.47;;;;;;;;;;5117594;28;20053;-77
2023/09/11 12:48:40;;;;;;;0.20;0.20;;;;;;;;;;5099872;28;20046;-78
2023/09/11 12:51:07;;;;;;;0.38;0.30;;;;;;;;;;5099888;28;20114;-79
2023/09/11 12:53:33;;;;;;;0.40;0.30;;;;;;;;;;5099602;28;20104;-79
2023/09/11 12:56:01;;;;;;;1.88;0.40;;;;;;;;;;5117970;28;20019;-78
2023/09/11 12:58:27;;;;;;;0.55;0.40;;;;;;;;;;5118016;28;20015;-79
2023/09/11 13:00:53;;;;;;;0.35;0.30;;;;;;;;;;5054443;28;20061;-79
2023/09/11 13:03:21;;;;;;;0.65;0.32;;;;;;;;;;5038235;28;20037;-79
2023/09/11 13:05:48;;;;;;;0.28;0.28;;;;;;;;;;5054871;28;20512;-78
2023/09/11 13:08:17;;;;;;;0.43;0.30;;;;;;;;;;5037573;28;20585;-80
2023/09/11 13:10:43;;;;;;;1.20;0.43;;;;;;;;;;5057475;28;20047;-80
2023/09/11 13:13:09;;;;;;;0.30;0.30;;;;;;;;;;5038589;28;20039;-80
2023/09/11 13:15:35;;;;;;;0.38;0.30;;;;;;;;;;5037485;28;20115;-77
2023/09/11 13:18:02;;;;;;;0.28;0.28;;;;;;;;;;5037678;28;20083;-77
2023/09/11 13:20:28;;;;;;;0.20;0.20;;;;;;;;;;5021455;28;20068;-79
2023/09/11 13:22:54;;;;;;;0.60;0.38;;;;;;;;;;5054083;28;20039;-80
2023/09/11 13:25:20;;;;;;;1.65;0.20;;;;;;;;;;5054600;28;20036;-80
2023/09/11 13:27:46;;;;;;;0.20;0.20;;;;;;;;;;5037170;28;20403;-79
2023/09/11 13:30:14;;;;;;;0.30;0.20;;;;;;;;;;5037406;28;20025;-81
2023/09/11 13:32:40;;;;;;;0.55;0.52;;;;;;;;;;5088478;28;20032;-79
2023/09/11 13:35:06;;;;;;;0.10;0.10;;;;;;;;;;5098681;28;20462;-77
2023/09/11 13:37:32;;;;;;;0.25;0.20;;;;;;;;;;5098768;28;20050;-80
2023/09/11 13:39:59;;;;;;;0.50;0.32;;;;;;;;;;5117485;28;20495;-81
2023/09/11 13:42:25;;;;;;;0.32;0.22;;;;;;;;;;5098455;28;20466;-79
2023/09/11 13:44:55;;;;;;;0.10;0.10;;;;;;;;;;5098998;28;20443;-77
2023/09/11 13:47:22;;;;;;;0.30;0.30;;;;;;;;;;5098748;28;20030;-78
2023/09/11 13:49:48;;;;;;;1.55;0.30;;;;;;;;;;5098326;28;20024;-78
2023/09/11 13:52:14;;;;;;;0.38;0.38;;;;;;;;;;5098242;28;20173;-79
2023/09/11 13:54:44;;;;;;;0.30;0.28;;;;;;;;;;5097962;28;20433;-78
2023/09/11 13:57:10;;;;;;;0.32;0.25;;;;;;;;;;5097836;28;20020;-78
2023/09/11 13:59:36;;;;;;;0.30;0.30;;;;;;;;;;5098812;28;20536;-79
2023/09/11 14:02:02;;;;;;;0.47;0.35;;;;;;;;;;5098413;28;20122;-79
2023/09/11 14:04:28;;;;;;;0.55;0.30;;;;;;;;;;5098219;28;20463;-78
2023/09/11 14:06:55;;;;;;;0.52;0.40;;;;;;;;;;5098544;28;20118;-79
2023/09/11 14:09:21;;;;;;;0.20;0.20;;;;;;;;;;5098029;28;20058;-79
2023/09/11 14:11:47;;;;;;;0.60;0.38;;;;;;;;;;5098332;28;20050;-78
2023/09/11 14:14:13;;;;;;;0.95;0.43;;;;;;;;;;5098713;28;20023;-79
2023/09/11 14:16:39;;;;;;;0.60;0.38;;;;;;;;;;5098683;28;20090;-79
2023/09/11 14:19:07;;;;;;;0.88;0.40;;;;;;;;;;5098352;28;20106;-79
2023/09/11 14:21:34;;;;;;;0.10;0.10;;;;;;;;;;5098208;28;20031;-78
2023/09/11 14:24:00;;;;;;;0.60;0.40;;;;;;;;;;5098013;28;20023;-78
2023/09/11 14:26:26;;;;;;;0.47;0.32;;;;;;;;;;5098283;28;20020;-77
2023/09/11 14:28:55;;;;;;;0.20;0.20;;;;;;;;;;5097760;28;20024;-78
2023/09/11 14:31:21;;;;;;;0.40;0.40;;;;;;;;;;5097542;28;20024;-79
2023/09/11 14:33:49;;;;;;;0.40;0.28;;;;;;;;;;5097788;28;20027;-80
2023/09/11 14:36:15;;;;;;;0.17;0.17;;;;;;;;;;5097576;28;20065;-81